createdAt,value
2022-08-31T00:00:20.902Z,14.24
2022-08-31T00:01:25.130Z,14.24
2022-08-31T00:02:29.545Z,14.24
2022-08-31T00:03:33.756Z,14.24
2022-08-31T00:04:38.303Z,14.23
2022-08-31T00:05:42.468Z,14.23
2022-08-31T00:06:46.801Z,14.24
2022-08-31T00:07:51.097Z,14.25
2022-08-31T00:08:55.366Z,14.26
2022-08-31T00:09:59.776Z,14.27
2022-08-31T00:11:04.027Z,14.27
2022-08-31T00:12:08.333Z,14.28
2022-08-31T00:13:12.627Z,14.28
2022-08-31T00:14:16.932Z,14.28
2022-08-31T00:15:22.115Z,14.28
2022-08-31T00:16:25.677Z,14.28
2022-08-31T00:17:29.873Z,14.27
2022-08-31T00:18:34.196Z,14.27
2022-08-31T00:19:38.537Z,14.26
2022-08-31T00:20:42.832Z,14.25
2022-08-31T00:21:47.137Z,14.24
2022-08-31T00:22:51.566Z,14.23
2022-08-31T00:23:55.880Z,14.23
2022-08-31T00:25:00.131Z,14.21
2022-08-31T00:26:04.505Z,14.21
2022-08-31T00:27:08.667Z,14.20
2022-08-31T00:28:13.093Z,14.19
2022-08-31T00:29:17.395Z,14.18
2022-08-31T00:30:21.677Z,14.17
2022-08-31T00:31:25.990Z,14.16
2022-08-31T00:32:30.321Z,14.14
2022-08-31T00:33:34.569Z,14.13
2022-08-31T00:34:38.938Z,14.10
2022-08-31T00:35:43.278Z,14.08
2022-08-31T00:36:47.618Z,14.05
2022-08-31T00:37:51.887Z,14.02
2022-08-31T00:38:56.281Z,13.99
2022-08-31T00:40:00.627Z,13.96
2022-08-31T00:41:04.925Z,13.94
2022-08-31T00:42:09.246Z,13.93
2022-08-31T00:43:13.608Z,13.92
2022-08-31T00:44:18.041Z,13.92
2022-08-31T00:45:22.430Z,13.92
2022-08-31T00:46:26.679Z,13.91
2022-08-31T00:47:30.931Z,13.91
2022-08-31T00:48:35.323Z,13.90
2022-08-31T00:49:39.575Z,13.91
2022-08-31T00:50:43.926Z,13.92
2022-08-31T00:51:48.243Z,13.92
2022-08-31T00:52:52.519Z,13.94
2022-08-31T00:53:56.904Z,13.94
2022-08-31T00:55:01.259Z,13.95
2022-08-31T00:56:05.633Z,13.95
2022-08-31T00:57:09.865Z,13.96
2022-08-31T00:58:14.196Z,13.98
2022-08-31T00:59:18.496Z,13.98
2022-08-31T01:00:22.892Z,13.99
2022-08-31T01:01:27.315Z,13.98
2022-08-31T01:02:31.617Z,13.97
2022-08-31T01:03:35.925Z,13.94
2022-08-31T01:04:40.255Z,13.91
2022-08-31T01:05:44.534Z,13.87
2022-08-31T01:06:48.913Z,13.83
2022-08-31T01:07:53.252Z,13.78
2022-08-31T01:08:57.524Z,13.76
2022-08-31T01:10:01.797Z,13.75
2022-08-31T01:11:06.271Z,13.76
2022-08-31T01:12:10.552Z,13.78
2022-08-31T01:13:14.898Z,13.81
2022-08-31T01:14:19.336Z,13.82
2022-08-31T01:15:23.625Z,13.84
2022-08-31T01:16:28.088Z,13.85
2022-08-31T01:17:32.443Z,13.85
2022-08-31T01:18:36.738Z,13.85
2022-08-31T01:19:41.111Z,13.82
2022-08-31T01:20:45.789Z,13.77
2022-08-31T01:21:49.728Z,13.74
2022-08-31T01:22:54.065Z,13.72
2022-08-31T01:23:58.419Z,13.68
2022-08-31T01:25:02.765Z,13.64
2022-08-31T01:26:07.031Z,13.62
2022-08-31T01:27:11.465Z,13.60
2022-08-31T01:28:15.667Z,13.59
2022-08-31T01:29:20.050Z,13.60
2022-08-31T01:30:24.448Z,13.61
2022-08-31T01:31:28.927Z,13.63
2022-08-31T01:32:33.168Z,13.65
2022-08-31T01:33:37.612Z,13.66
2022-08-31T01:34:41.910Z,13.67
2022-08-31T01:35:46.377Z,13.69
2022-08-31T01:36:50.571Z,13.70
2022-08-31T01:37:54.930Z,13.70
2022-08-31T01:38:59.182Z,13.71
2022-08-31T01:40:03.649Z,13.72
2022-08-31T01:41:07.925Z,13.72
2022-08-31T01:42:12.253Z,13.73
2022-08-31T01:43:16.941Z,13.73
2022-08-31T01:44:21.016Z,13.74
2022-08-31T01:45:25.472Z,13.73
2022-08-31T01:46:29.910Z,13.69
2022-08-31T01:47:34.127Z,13.64
2022-08-31T01:48:41.095Z,13.58
2022-08-31T01:49:42.769Z,13.53
2022-08-31T01:50:47.230Z,13.50
2022-08-31T01:51:51.639Z,13.46
2022-08-31T01:52:55.862Z,13.42
2022-08-31T01:54:00.259Z,13.37
2022-08-31T01:55:04.614Z,13.32
2022-08-31T01:56:08.914Z,13.26
2022-08-31T01:57:13.231Z,13.22
2022-08-31T01:58:17.647Z,13.19
2022-08-31T01:59:21.898Z,13.18
2022-08-31T02:00:26.270Z,13.18
2022-08-31T02:01:33.430Z,13.20
2022-08-31T02:02:35.058Z,13.24
2022-08-31T02:03:39.241Z,13.27
2022-08-31T02:04:43.567Z,13.30
2022-08-31T02:05:47.892Z,13.33
2022-08-31T02:06:52.263Z,13.36
2022-08-31T02:07:56.508Z,13.39
2022-08-31T02:09:00.985Z,13.42
2022-08-31T02:10:05.193Z,13.44
2022-08-31T02:11:09.664Z,13.47
2022-08-31T02:12:13.861Z,13.49
2022-08-31T02:13:18.571Z,13.51
2022-08-31T02:14:22.601Z,13.53
2022-08-31T02:15:26.971Z,13.54
2022-08-31T02:16:31.369Z,13.52
2022-08-31T02:17:35.590Z,13.48
2022-08-31T02:18:39.868Z,13.44
2022-08-31T02:19:44.262Z,13.39
2022-08-31T02:20:48.623Z,13.36
2022-08-31T02:21:52.932Z,13.34
2022-08-31T02:22:57.280Z,13.33
2022-08-31T02:24:01.711Z,13.31
2022-08-31T02:25:06.074Z,13.31
2022-08-31T02:26:10.369Z,13.29
2022-08-31T02:27:14.605Z,13.28
2022-08-31T02:28:18.972Z,13.27
2022-08-31T02:29:23.301Z,13.28
2022-08-31T02:30:27.697Z,13.27
2022-08-31T02:31:32.079Z,13.26
2022-08-31T02:32:36.435Z,13.26
2022-08-31T02:33:40.604Z,13.26
2022-08-31T02:34:44.975Z,13.27
2022-08-31T02:35:50.347Z,13.28
2022-08-31T02:36:53.599Z,13.29
2022-08-31T02:37:57.941Z,13.29
2022-08-31T02:39:02.280Z,13.29
2022-08-31T02:40:06.646Z,13.30
2022-08-31T02:41:10.919Z,13.31
2022-08-31T02:42:15.235Z,13.32
2022-08-31T02:43:25.032Z,13.33
2022-08-31T02:44:23.855Z,13.33
2022-08-31T02:45:28.126Z,13.32
2022-08-31T02:46:32.686Z,13.32
2022-08-31T02:47:36.896Z,13.32
2022-08-31T02:48:41.252Z,13.32
2022-08-31T02:49:45.661Z,13.32
2022-08-31T02:50:49.867Z,13.32
2022-08-31T02:51:54.246Z,13.32
2022-08-31T02:52:58.612Z,13.33
2022-08-31T02:54:02.965Z,13.34
2022-08-31T02:55:07.203Z,13.36
2022-08-31T02:56:11.696Z,13.37
2022-08-31T02:57:16.012Z,13.37
2022-08-31T02:58:24.023Z,13.37
2022-08-31T02:59:24.726Z,13.38
2022-08-31T03:00:29.139Z,13.39
2022-08-31T03:01:33.424Z,13.39
2022-08-31T03:02:37.721Z,13.39
2022-08-31T03:03:47.146Z,13.39
2022-08-31T03:04:46.247Z,13.39
2022-08-31T03:05:50.639Z,13.39
2022-08-31T03:06:54.958Z,13.39
2022-08-31T03:07:59.275Z,13.38
2022-08-31T03:09:03.549Z,13.36
2022-08-31T03:10:07.920Z,13.33
2022-08-31T03:11:12.313Z,13.30
2022-08-31T03:12:16.512Z,13.26
2022-08-31T03:13:21.018Z,13.21
2022-08-31T03:14:25.072Z,13.16
2022-08-31T03:15:29.468Z,13.11
2022-08-31T03:16:33.736Z,13.06
2022-08-31T03:17:38.147Z,13.02
2022-08-31T03:18:42.444Z,12.99
2022-08-31T03:19:46.756Z,12.96
2022-08-31T03:20:51.050Z,12.93
2022-08-31T03:21:56.190Z,12.91
2022-08-31T03:22:59.684Z,12.91
2022-08-31T03:24:03.924Z,12.92
2022-08-31T03:25:08.303Z,12.93
2022-08-31T03:26:12.705Z,12.94
2022-08-31T03:27:16.946Z,12.95
2022-08-31T03:28:21.318Z,12.94
2022-08-31T03:29:25.638Z,12.92
2022-08-31T03:30:31.404Z,12.88
2022-08-31T03:31:34.351Z,12.83
2022-08-31T03:32:38.550Z,12.79
2022-08-31T03:33:42.891Z,12.74
2022-08-31T03:34:47.235Z,12.70
2022-08-31T03:35:51.632Z,12.66
2022-08-31T03:36:55.896Z,12.62
2022-08-31T03:38:00.201Z,12.58
2022-08-31T03:39:04.495Z,12.55
2022-08-31T03:40:08.791Z,12.54
2022-08-31T03:41:13.079Z,12.53
2022-08-31T03:42:17.407Z,12.53
2022-08-31T03:43:21.759Z,12.54
2022-08-31T03:44:26.220Z,12.56
2022-08-31T03:45:30.494Z,12.57
2022-08-31T03:46:34.958Z,12.58
2022-08-31T03:47:44.555Z,12.61
2022-08-31T03:48:43.512Z,12.64
2022-08-31T03:49:47.842Z,12.67
2022-08-31T03:50:52.153Z,12.70
2022-08-31T03:51:56.577Z,12.73
2022-08-31T03:53:00.834Z,12.76
2022-08-31T03:54:05.167Z,12.78
2022-08-31T03:55:09.470Z,12.80
2022-08-31T03:56:13.837Z,12.83
2022-08-31T03:57:18.159Z,12.85
2022-08-31T03:58:22.588Z,12.87
2022-08-31T03:59:26.942Z,12.89
2022-08-31T04:00:31.303Z,12.90
2022-08-31T04:01:35.511Z,12.90
2022-08-31T04:02:39.947Z,12.91
2022-08-31T04:03:44.091Z,12.91
2022-08-31T04:04:48.489Z,12.91
2022-08-31T04:05:52.822Z,12.92
2022-08-31T04:06:57.127Z,12.92
2022-08-31T04:08:01.413Z,12.93
2022-08-31T04:09:05.729Z,12.93
2022-08-31T04:10:10.050Z,12.93
2022-08-31T04:11:14.367Z,12.93
2022-08-31T04:12:18.701Z,12.93
2022-08-31T04:13:26.722Z,12.92
2022-08-31T04:14:27.353Z,12.92
2022-08-31T04:15:31.725Z,12.90
2022-08-31T04:16:35.987Z,12.89
2022-08-31T04:17:40.325Z,12.89
2022-08-31T04:18:44.680Z,12.88
2022-08-31T04:19:49.019Z,12.87
2022-08-31T04:20:53.333Z,12.86
2022-08-31T04:21:57.620Z,12.84
2022-08-31T04:23:01.935Z,12.83
2022-08-31T04:24:06.223Z,12.82
2022-08-31T04:25:10.608Z,12.81
2022-08-31T04:26:14.925Z,12.81
2022-08-31T04:27:19.211Z,12.81
2022-08-31T04:28:23.564Z,12.82
2022-08-31T04:29:27.890Z,12.83
2022-08-31T04:30:32.246Z,12.84
2022-08-31T04:31:36.510Z,12.85
2022-08-31T04:32:40.936Z,12.86
2022-08-31T04:33:45.161Z,12.86
2022-08-31T04:34:54.243Z,12.87
2022-08-31T04:35:53.847Z,12.88
2022-08-31T04:36:58.107Z,12.88
2022-08-31T04:38:02.392Z,12.88
2022-08-31T04:39:06.761Z,12.88
2022-08-31T04:40:11.123Z,12.88
2022-08-31T04:41:15.375Z,12.88
2022-08-31T04:42:19.832Z,12.89
2022-08-31T04:43:24.241Z,12.89
2022-08-31T04:44:28.459Z,12.91
2022-08-31T04:45:32.740Z,12.92
2022-08-31T04:46:37.072Z,12.92
2022-08-31T04:47:41.482Z,12.94
2022-08-31T04:48:45.791Z,12.95
2022-08-31T04:49:50.097Z,12.96
2022-08-31T04:50:54.505Z,12.96
2022-08-31T04:51:58.883Z,12.96
2022-08-31T04:53:04.129Z,12.96
2022-08-31T04:54:07.511Z,12.96
2022-08-31T04:55:11.692Z,12.96
2022-08-31T04:56:16.050Z,12.98
2022-08-31T04:57:20.383Z,13.00
2022-08-31T04:58:24.590Z,13.02
2022-08-31T04:59:28.953Z,13.05
2022-08-31T05:00:33.318Z,13.08
2022-08-31T05:01:42.890Z,13.11
2022-08-31T05:02:41.969Z,13.13
2022-08-31T05:03:46.361Z,13.16
2022-08-31T05:04:50.648Z,13.18
2022-08-31T05:05:54.996Z,13.19
2022-08-31T05:06:59.303Z,13.19
2022-08-31T05:08:03.578Z,13.19
2022-08-31T05:09:07.919Z,13.20
2022-08-31T05:10:12.277Z,13.20
2022-08-31T05:11:16.577Z,13.20
2022-08-31T05:12:20.877Z,13.22
2022-08-31T05:13:25.130Z,13.22
2022-08-31T05:14:29.548Z,13.22
2022-08-31T05:15:33.877Z,13.23
2022-08-31T05:16:38.137Z,13.25
2022-08-31T05:17:42.453Z,13.27
2022-08-31T05:18:46.711Z,13.30
2022-08-31T05:19:51.073Z,13.31
2022-08-31T05:20:55.390Z,13.32
2022-08-31T05:21:59.686Z,13.34
2022-08-31T05:23:03.983Z,13.36
2022-08-31T05:24:08.340Z,13.38
2022-08-31T05:25:12.686Z,13.41
2022-08-31T05:26:17.013Z,13.45
2022-08-31T05:27:21.344Z,13.50
2022-08-31T05:28:25.716Z,13.57
2022-08-31T05:29:29.983Z,13.71
2022-08-31T05:30:34.356Z,13.91
2022-08-31T05:31:38.714Z,14.08
2022-08-31T05:32:43.137Z,14.19
2022-08-31T05:33:47.425Z,14.23
2022-08-31T05:34:51.801Z,14.24
2022-08-31T05:35:56.118Z,14.21
2022-08-31T05:37:00.390Z,14.15
2022-08-31T05:38:04.742Z,14.07
2022-08-31T05:39:09.105Z,14.00
2022-08-31T05:40:13.480Z,13.95
2022-08-31T05:41:17.733Z,13.92
2022-08-31T05:42:22.183Z,13.90
2022-08-31T05:43:26.476Z,13.90
2022-08-31T05:44:30.755Z,13.92
2022-08-31T05:45:35.220Z,13.95
2022-08-31T05:46:39.644Z,13.98
2022-08-31T05:47:43.808Z,14.02
2022-08-31T05:48:49.625Z,14.04
2022-08-31T05:49:52.660Z,14.07
2022-08-31T05:50:56.961Z,14.11
2022-08-31T05:52:01.310Z,14.15
2022-08-31T05:53:05.772Z,14.18
2022-08-31T05:54:10.097Z,14.19
2022-08-31T05:55:14.348Z,14.21
2022-08-31T05:56:19.149Z,14.31
2022-08-31T05:57:26.534Z,14.46
2022-08-31T05:58:27.437Z,14.62
2022-08-31T05:59:31.831Z,14.79
2022-08-31T06:00:36.126Z,14.95
2022-08-31T06:01:40.628Z,15.09
2022-08-31T06:02:44.996Z,15.20
2022-08-31T06:03:49.317Z,15.26
2022-08-31T06:04:53.687Z,15.30
2022-08-31T06:05:58.002Z,15.33
2022-08-31T06:07:02.348Z,15.36
2022-08-31T06:08:06.661Z,15.41
2022-08-31T06:09:11.012Z,15.47
2022-08-31T06:10:15.420Z,15.55
2022-08-31T06:11:19.754Z,15.65
2022-08-31T06:12:24.130Z,15.76
2022-08-31T06:13:28.486Z,15.88
2022-08-31T06:14:32.821Z,16.02
2022-08-31T06:15:39.476Z,16.16
2022-08-31T06:16:41.702Z,16.31
2022-08-31T06:17:45.859Z,16.46
2022-08-31T06:18:50.235Z,16.58
2022-08-31T06:19:54.593Z,16.68
2022-08-31T06:20:58.983Z,16.77
2022-08-31T06:22:03.353Z,16.85
2022-08-31T06:23:07.675Z,16.91
2022-08-31T06:24:12.025Z,16.95
2022-08-31T06:25:16.337Z,16.98
2022-08-31T06:26:20.785Z,16.98
2022-08-31T06:27:25.176Z,16.96
2022-08-31T06:28:29.517Z,16.91
2022-08-31T06:29:36.974Z,16.91
2022-08-31T06:30:54.367Z,16.92
2022-08-31T06:31:44.893Z,16.96
2022-08-31T06:32:49.182Z,16.99
2022-08-31T06:33:53.505Z,17.03
2022-08-31T06:34:57.864Z,17.05
2022-08-31T06:36:02.229Z,17.09
2022-08-31T06:37:06.674Z,17.16
2022-08-31T06:38:11.071Z,17.19
2022-08-31T06:39:15.474Z,17.26
2022-08-31T06:40:19.920Z,17.35
2022-08-31T06:41:24.293Z,17.42
2022-08-31T06:42:28.659Z,17.47
2022-08-31T06:43:32.995Z,17.50
2022-08-31T06:44:37.344Z,17.51
2022-08-31T06:45:41.765Z,17.54
2022-08-31T06:46:46.551Z,17.57
2022-08-31T06:47:50.497Z,17.58
2022-08-31T06:48:55.006Z,17.60
2022-08-31T06:49:59.221Z,17.65
2022-08-31T06:51:03.645Z,17.71
2022-08-31T06:52:07.952Z,17.75
2022-08-31T06:53:12.374Z,17.83
2022-08-31T06:54:28.912Z,17.93
2022-08-31T06:55:21.157Z,18.02
2022-08-31T06:56:25.580Z,18.13
2022-08-31T06:57:29.898Z,18.26
2022-08-31T06:58:34.248Z,18.39
2022-08-31T06:59:38.676Z,18.51
2022-08-31T07:00:43.109Z,18.56
2022-08-31T07:01:47.515Z,18.59
2022-08-31T07:02:52.982Z,18.59
2022-08-31T07:03:56.194Z,18.58
2022-08-31T07:05:00.629Z,18.54
2022-08-31T07:06:05.025Z,18.49
2022-08-31T07:07:09.500Z,18.46
2022-08-31T07:08:13.864Z,18.44
2022-08-31T07:09:18.294Z,18.42
2022-08-31T07:10:22.565Z,18.41
2022-08-31T07:11:26.981Z,18.40
2022-08-31T07:12:31.391Z,18.39
2022-08-31T07:13:35.710Z,18.39
2022-08-31T07:14:40.126Z,18.39
2022-08-31T07:15:44.501Z,18.39
2022-08-31T07:16:48.836Z,18.40
2022-08-31T07:17:53.232Z,18.40
2022-08-31T07:18:57.699Z,18.41
2022-08-31T07:20:02.046Z,18.41
2022-08-31T07:21:06.480Z,18.43
2022-08-31T07:22:15.423Z,18.46
2022-08-31T07:23:15.297Z,18.50
2022-08-31T07:24:19.592Z,18.53
2022-08-31T07:25:23.999Z,18.55
2022-08-31T07:26:28.470Z,18.55
2022-08-31T07:27:32.802Z,18.57
2022-08-31T07:28:37.084Z,18.58
2022-08-31T07:29:41.548Z,18.59
2022-08-31T07:30:45.968Z,18.61
2022-08-31T07:31:50.304Z,18.63
2022-08-31T07:32:56.326Z,18.66
2022-08-31T07:33:59.153Z,18.68
2022-08-31T07:35:03.492Z,18.70
2022-08-31T07:36:07.879Z,18.71
2022-08-31T07:37:12.247Z,18.73
2022-08-31T07:38:16.588Z,18.76
2022-08-31T07:39:21.011Z,18.79
2022-08-31T07:40:25.436Z,18.81
2022-08-31T07:41:29.750Z,18.83
2022-08-31T07:42:34.194Z,18.85
2022-08-31T07:43:38.466Z,18.86
2022-08-31T07:44:42.926Z,18.88
2022-08-31T07:45:47.471Z,18.90
2022-08-31T07:46:51.734Z,18.91
2022-08-31T07:47:56.074Z,18.92
2022-08-31T07:49:00.578Z,18.93
2022-08-31T07:50:05.032Z,18.94
2022-08-31T07:51:13.392Z,18.96
2022-08-31T07:52:13.919Z,18.98
2022-08-31T07:53:18.522Z,19.01
2022-08-31T07:54:22.685Z,19.05
2022-08-31T07:55:27.058Z,19.08
2022-08-31T07:56:34.695Z,19.12
2022-08-31T07:57:35.832Z,19.15
2022-08-31T07:58:40.240Z,19.17
2022-08-31T07:59:44.631Z,19.19
2022-08-31T08:00:49.149Z,19.21
2022-08-31T08:01:53.597Z,19.23
2022-08-31T08:02:57.930Z,19.24
2022-08-31T08:04:02.301Z,19.24
2022-08-31T08:05:06.709Z,19.25
2022-08-31T08:06:11.054Z,19.28
2022-08-31T08:07:15.558Z,19.30
2022-08-31T08:08:22.929Z,19.33
2022-08-31T08:09:26.446Z,19.35
2022-08-31T08:10:30.930Z,19.38
2022-08-31T08:11:35.213Z,19.40
2022-08-31T08:12:39.641Z,19.43
2022-08-31T08:13:44.032Z,19.45
2022-08-31T08:14:48.392Z,19.48
2022-08-31T08:15:52.924Z,19.51
2022-08-31T08:16:57.128Z,19.54
2022-08-31T08:18:01.589Z,19.56
2022-08-31T08:19:05.894Z,19.57
2022-08-31T08:20:13.614Z,19.59
2022-08-31T08:21:14.755Z,19.60
2022-08-31T08:22:30.803Z,19.60
2022-08-31T08:23:28.071Z,19.63
2022-08-31T08:24:27.826Z,19.66
2022-08-31T08:25:32.229Z,19.69
2022-08-31T08:26:36.678Z,19.70
2022-08-31T08:27:41.055Z,19.72
2022-08-31T08:28:45.479Z,19.76
2022-08-31T08:29:49.875Z,19.78
2022-08-31T08:30:54.264Z,19.80
2022-08-31T08:31:58.718Z,19.80
2022-08-31T08:33:03.054Z,19.82
2022-08-31T08:34:07.491Z,19.80
2022-08-31T08:35:11.898Z,19.82
2022-08-31T08:36:16.307Z,19.84
2022-08-31T08:37:35.650Z,19.86
2022-08-31T08:38:25.071Z,19.87
2022-08-31T08:39:29.512Z,19.89
2022-08-31T08:40:34.080Z,19.89
2022-08-31T08:41:38.226Z,19.90
2022-08-31T08:42:42.653Z,19.91
2022-08-31T08:43:52.520Z,19.92
2022-08-31T08:44:51.378Z,19.95
2022-08-31T08:45:55.993Z,19.97
2022-08-31T08:47:00.372Z,19.97
2022-08-31T08:48:04.658Z,19.96
2022-08-31T08:49:09.169Z,19.96
2022-08-31T08:50:13.541Z,19.97
2022-08-31T08:51:17.948Z,19.99
2022-08-31T08:52:22.354Z,20.03
2022-08-31T08:53:26.681Z,20.06
2022-08-31T08:54:31.161Z,20.09
2022-08-31T08:55:35.573Z,20.11
2022-08-31T08:56:39.965Z,20.15
2022-08-31T08:57:44.301Z,20.18
2022-08-31T08:58:48.743Z,20.20
2022-08-31T08:59:53.142Z,20.24
2022-08-31T09:00:57.524Z,20.28
2022-08-31T09:02:05.192Z,20.31
2022-08-31T09:03:08.515Z,20.33
2022-08-31T09:04:12.790Z,20.35
2022-08-31T09:05:17.140Z,20.37
2022-08-31T09:06:21.652Z,20.38
2022-08-31T09:07:25.933Z,20.39
2022-08-31T09:08:30.324Z,20.39
2022-08-31T09:09:34.756Z,20.41
2022-08-31T09:10:39.072Z,20.43
2022-08-31T09:11:43.531Z,20.47
2022-08-31T09:12:47.930Z,20.51
2022-08-31T09:13:52.235Z,20.55
2022-08-31T09:14:56.657Z,20.59
2022-08-31T09:16:01.093Z,20.63
2022-08-31T09:17:05.392Z,20.66
2022-08-31T09:18:09.753Z,20.68
2022-08-31T09:19:14.231Z,20.69
2022-08-31T09:20:18.698Z,20.72
2022-08-31T09:21:23.060Z,20.75
2022-08-31T09:22:27.399Z,20.75
2022-08-31T09:23:31.829Z,20.76
2022-08-31T09:24:36.227Z,20.77
2022-08-31T09:25:40.598Z,20.78
2022-08-31T09:26:45.085Z,20.80
2022-08-31T09:27:49.559Z,20.78
2022-08-31T09:28:53.898Z,20.77
2022-08-31T09:29:58.352Z,20.76
2022-08-31T09:31:02.779Z,20.76
2022-08-31T09:32:07.096Z,20.75
2022-08-31T09:33:11.482Z,20.74
2022-08-31T09:34:15.790Z,20.74
2022-08-31T09:35:20.155Z,20.76
2022-08-31T09:36:24.578Z,20.80
2022-08-31T09:37:29.033Z,20.82
2022-08-31T09:38:33.319Z,20.83
2022-08-31T09:39:37.689Z,20.86
2022-08-31T09:40:42.231Z,20.87
2022-08-31T09:41:46.511Z,20.88
2022-08-31T09:42:50.950Z,20.90
2022-08-31T09:43:55.311Z,20.96
2022-08-31T09:44:59.655Z,21.02
2022-08-31T09:46:04.118Z,21.10
2022-08-31T09:47:08.498Z,21.20
2022-08-31T09:48:12.928Z,21.25
2022-08-31T09:49:17.357Z,21.25
2022-08-31T09:50:21.776Z,21.25
2022-08-31T09:51:26.135Z,21.23
2022-08-31T09:52:30.539Z,21.25
2022-08-31T09:53:35.066Z,21.26
2022-08-31T09:54:43.118Z,21.24
2022-08-31T09:55:43.782Z,21.22
2022-08-31T09:56:48.247Z,21.20
2022-08-31T09:57:52.649Z,21.19
2022-08-31T09:58:57.151Z,21.23
2022-08-31T10:00:01.612Z,21.33
2022-08-31T10:01:06.065Z,21.50
2022-08-31T10:02:10.396Z,21.59
2022-08-31T10:03:14.751Z,21.67
2022-08-31T10:04:19.108Z,21.72
2022-08-31T10:05:23.662Z,21.77
2022-08-31T10:06:27.928Z,21.78
2022-08-31T10:07:32.454Z,21.76
2022-08-31T10:08:36.893Z,21.72
2022-08-31T10:09:41.230Z,21.65
2022-08-31T10:10:45.655Z,21.60
2022-08-31T10:11:49.963Z,21.55
2022-08-31T10:12:54.413Z,21.52
2022-08-31T10:13:58.829Z,21.53
2022-08-31T10:15:03.174Z,21.58
2022-08-31T10:16:07.698Z,21.62
2022-08-31T10:17:11.962Z,21.68
2022-08-31T10:18:16.334Z,21.74
2022-08-31T10:19:20.738Z,21.81
2022-08-31T10:20:26.338Z,21.90
2022-08-31T10:21:29.485Z,21.97
2022-08-31T10:22:33.865Z,22.02
2022-08-31T10:23:38.318Z,22.04
2022-08-31T10:24:42.728Z,22.02
2022-08-31T10:25:47.121Z,21.94
2022-08-31T10:26:51.479Z,21.89
2022-08-31T10:27:55.928Z,21.84
2022-08-31T10:29:00.417Z,21.77
2022-08-31T10:30:04.741Z,21.73
2022-08-31T10:31:09.194Z,21.67
2022-08-31T10:32:13.467Z,21.62
2022-08-31T10:33:18.121Z,21.58
2022-08-31T10:34:22.315Z,21.56
2022-08-31T10:35:26.631Z,21.54
2022-08-31T10:36:31.010Z,21.50
2022-08-31T10:37:35.505Z,21.46
2022-08-31T10:38:39.919Z,21.43
2022-08-31T10:39:44.245Z,21.40
2022-08-31T10:40:48.760Z,21.39
2022-08-31T10:41:53.040Z,21.36
2022-08-31T10:42:57.498Z,21.35
2022-08-31T10:44:01.966Z,21.33
2022-08-31T10:45:06.395Z,21.32
2022-08-31T10:46:10.697Z,21.31
2022-08-31T10:47:22.784Z,21.28
2022-08-31T10:48:19.398Z,21.27
2022-08-31T10:49:23.748Z,21.25
2022-08-31T10:50:28.136Z,21.23
2022-08-31T10:51:32.622Z,21.22
2022-08-31T10:52:36.928Z,21.20
2022-08-31T10:53:41.398Z,21.21
2022-08-31T10:54:45.828Z,21.24
2022-08-31T10:55:50.221Z,21.29
2022-08-31T10:56:54.523Z,21.35
2022-08-31T10:57:58.872Z,21.44
2022-08-31T10:59:03.328Z,21.53
2022-08-31T11:00:07.681Z,21.61
2022-08-31T11:01:12.218Z,21.69
2022-08-31T11:02:16.456Z,21.77
2022-08-31T11:03:21.048Z,21.86
2022-08-31T11:04:25.395Z,21.96
2022-08-31T11:05:29.657Z,22.03
2022-08-31T11:06:34.085Z,22.07
2022-08-31T11:07:38.563Z,22.13
2022-08-31T11:08:42.889Z,22.20
2022-08-31T11:09:47.258Z,22.25
2022-08-31T11:10:51.672Z,22.28
2022-08-31T11:11:56.110Z,22.30
2022-08-31T11:13:00.517Z,22.29
2022-08-31T11:14:04.879Z,22.28
2022-08-31T11:15:09.367Z,22.28
2022-08-31T11:16:13.877Z,22.26
2022-08-31T11:17:18.276Z,22.22
2022-08-31T11:18:22.696Z,22.18
2022-08-31T11:19:27.109Z,22.15
2022-08-31T11:20:31.600Z,22.11
2022-08-31T11:21:35.994Z,22.03
2022-08-31T11:22:40.324Z,21.94
2022-08-31T11:23:45.221Z,21.89
2022-08-31T11:24:49.225Z,21.86
2022-08-31T11:25:53.666Z,21.83
2022-08-31T11:26:58.030Z,21.79
2022-08-31T11:28:02.501Z,21.71
2022-08-31T11:29:06.813Z,21.66
2022-08-31T11:30:11.297Z,21.62
2022-08-31T11:31:15.763Z,21.59
2022-08-31T11:32:20.191Z,21.56
2022-08-31T11:33:24.557Z,21.52
2022-08-31T11:34:28.952Z,21.50
2022-08-31T11:35:33.272Z,21.48
2022-08-31T11:36:37.739Z,21.45
2022-08-31T11:37:42.235Z,21.45
2022-08-31T11:38:46.580Z,21.46
2022-08-31T11:39:50.881Z,21.47
2022-08-31T11:40:55.399Z,21.52
2022-08-31T11:41:59.801Z,21.58
2022-08-31T11:43:04.109Z,21.68
2022-08-31T11:44:08.532Z,21.78
2022-08-31T11:45:14.187Z,21.88
2022-08-31T11:46:17.709Z,21.99
2022-08-31T11:47:21.750Z,22.07
2022-08-31T11:48:26.206Z,22.08
2022-08-31T11:49:30.518Z,22.09
2022-08-31T11:50:34.966Z,22.12
2022-08-31T11:51:41.333Z,22.17
2022-08-31T11:52:43.695Z,22.18
2022-08-31T11:53:48.115Z,22.14
2022-08-31T11:54:52.592Z,22.06
2022-08-31T11:55:56.979Z,22.03
2022-08-31T11:57:01.337Z,22.01
2022-08-31T11:58:05.795Z,22.00
2022-08-31T11:59:10.266Z,21.97
2022-08-31T12:00:14.730Z,21.94
2022-08-31T12:01:19.104Z,21.91
2022-08-31T12:02:23.480Z,21.87
2022-08-31T12:03:27.894Z,21.86
2022-08-31T12:04:32.241Z,21.84
2022-08-31T12:05:36.769Z,21.81
2022-08-31T12:06:41.127Z,21.79
2022-08-31T12:07:45.465Z,21.78
2022-08-31T12:08:49.907Z,21.74
2022-08-31T12:09:54.308Z,21.71
2022-08-31T12:10:58.723Z,21.67
2022-08-31T12:12:03.067Z,21.62
2022-08-31T12:13:07.451Z,21.56
2022-08-31T12:14:11.823Z,21.55
2022-08-31T12:15:16.152Z,21.55
2022-08-31T12:16:20.682Z,21.54
2022-08-31T12:17:24.970Z,21.53
2022-08-31T12:18:29.421Z,21.51
2022-08-31T12:19:33.844Z,21.47
2022-08-31T12:20:38.272Z,21.45
2022-08-31T12:21:42.625Z,21.44
2022-08-31T12:22:47.026Z,21.43
2022-08-31T12:23:51.395Z,21.42
2022-08-31T12:24:55.895Z,21.39
2022-08-31T12:26:00.214Z,21.38
2022-08-31T12:27:04.581Z,21.37
2022-08-31T12:28:09.022Z,21.40
2022-08-31T12:29:13.420Z,21.54
2022-08-31T12:30:17.850Z,21.76
2022-08-31T12:31:22.248Z,22.01
2022-08-31T12:32:26.658Z,22.23
2022-08-31T12:33:31.220Z,22.45
2022-08-31T12:34:35.578Z,22.69
2022-08-31T12:35:39.921Z,22.93
2022-08-31T12:36:44.338Z,23.16
2022-08-31T12:37:48.800Z,23.35
2022-08-31T12:38:53.225Z,23.52
2022-08-31T12:39:57.643Z,23.66
2022-08-31T12:41:02.012Z,23.74
2022-08-31T12:42:06.518Z,23.75
2022-08-31T12:43:10.877Z,23.71
2022-08-31T12:44:15.405Z,23.63
2022-08-31T12:45:19.704Z,23.55
2022-08-31T12:46:24.170Z,23.44
2022-08-31T12:47:28.454Z,23.34
2022-08-31T12:48:32.967Z,23.23
2022-08-31T12:49:37.271Z,23.13
2022-08-31T12:50:41.720Z,23.06
2022-08-31T12:51:46.153Z,22.99
2022-08-31T12:52:50.575Z,22.89
2022-08-31T12:53:55.006Z,22.80
2022-08-31T12:54:59.430Z,22.71
2022-08-31T12:56:03.834Z,22.63
2022-08-31T12:57:08.276Z,22.55
2022-08-31T12:58:12.594Z,22.50
2022-08-31T12:59:16.989Z,22.42
2022-08-31T13:00:21.830Z,22.38
2022-08-31T13:01:26.088Z,22.35
2022-08-31T13:02:30.712Z,22.31
2022-08-31T13:03:34.759Z,22.28
2022-08-31T13:04:39.160Z,22.25
2022-08-31T13:05:43.571Z,22.21
2022-08-31T13:06:47.997Z,22.17
2022-08-31T13:07:52.466Z,22.11
2022-08-31T13:08:56.869Z,22.05
2022-08-31T13:10:01.316Z,21.97
2022-08-31T13:11:05.670Z,21.90
2022-08-31T13:12:10.185Z,21.84
2022-08-31T13:13:14.639Z,21.80
2022-08-31T13:14:19.073Z,21.78
2022-08-31T13:15:23.452Z,21.76
2022-08-31T13:16:27.958Z,21.73
2022-08-31T13:17:32.320Z,21.70
2022-08-31T13:18:36.770Z,21.68
2022-08-31T13:19:41.157Z,21.67
2022-08-31T13:20:45.584Z,21.67
2022-08-31T13:21:49.978Z,21.65
2022-08-31T13:22:54.405Z,21.63
2022-08-31T13:23:58.776Z,21.62
2022-08-31T13:25:03.219Z,21.63
2022-08-31T13:26:07.625Z,21.66
2022-08-31T13:27:12.026Z,21.70
2022-08-31T13:28:16.383Z,21.74
2022-08-31T13:29:20.854Z,21.75
2022-08-31T13:30:25.464Z,21.81
2022-08-31T13:31:29.733Z,21.94
2022-08-31T13:32:34.206Z,22.08
2022-08-31T13:33:38.545Z,22.23
2022-08-31T13:34:42.984Z,22.36
2022-08-31T13:35:47.475Z,22.41
2022-08-31T13:36:52.999Z,22.42
2022-08-31T13:37:56.292Z,22.42
2022-08-31T13:39:00.628Z,22.46
2022-08-31T13:40:05.204Z,22.49
2022-08-31T13:41:09.475Z,22.51
2022-08-31T13:42:13.863Z,22.51
2022-08-31T13:43:18.490Z,22.54
2022-08-31T13:44:22.654Z,22.58
2022-08-31T13:45:27.070Z,22.62
2022-08-31T13:46:42.451Z,22.66
2022-08-31T13:47:41.713Z,22.71
2022-08-31T13:48:40.275Z,22.73